sensor_id;sensor_type;location;lat;lon;timestamp;pressure;altitude;pressure_sealevel;temperature;humidity
73594;BME280;64760;53.404;23.498;2023-08-31T07:48:49;98715.94;;;18.64;100.00
73594;BME280;64760;53.404;23.498;2023-08-31T07:51:17;98717.53;;;18.86;100.00
73594;BME280;64760;53.404;23.498;2023-08-31T07:53:49;98722.06;;;19.20;100.00
73594;BME280;64760;53.404;23.498;2023-08-31T07:56:16;98729.03;;;19.47;100.00
73594;BME280;64760;53.404;23.498;2023-08-31T07:58:42;98730.09;;;19.51;100.00
73594;BME280;64760;53.404;23.498;2023-08-31T08:01:08;98725.69;;;19.70;100.00
73594;BME280;64760;53.404;23.498;2023-08-31T08:03:35;98724.56;;;19.76;100.00
73594;BME280;64760;53.404;23.498;2023-08-31T08:06:01;98729.94;;;19.86;100.00
73594;BME280;64760;53.404;23.498;2023-08-31T08:08:29;98728.34;;;19.80;100.00
73594;BME280;64760;53.404;23.498;2023-08-31T08:10:56;98730.97;;;19.95;100.00
73594;BME280;64760;53.404;23.498;2023-08-31T08:13:22;98730.47;;;19.88;100.00
73594;BME280;64760;53.404;23.498;2023-08-31T08:15:49;98734.78;;;19.94;100.00
73594;BME280;64760;53.404;23.498;2023-08-31T08:18:15;98728.41;;;19.70;100.00
73594;BME280;64760;53.404;23.498;2023-08-31T08:20:41;98725.09;;;19.78;100.00
73594;BME280;64760;53.404;23.498;2023-08-31T08:23:07;98724.63;;;19.61;100.00
73594;BME280;64760;53.404;23.498;2023-08-31T08:25:34;98725.53;;;19.31;100.00
73594;BME280;64760;53.404;23.498;2023-08-31T08:28:00;98720.34;;;19.40;100.00
73594;BME280;64760;53.404;23.498;2023-08-31T08:30:26;98734.22;;;19.48;100.00
73594;BME280;64760;53.404;23.498;2023-08-31T08:32:52;98729.75;;;19.67;100.00
73594;BME280;64760;53.404;23.498;2023-08-31T08:35:19;98732.97;;;19.80;100.00
73594;BME280;64760;53.404;23.498;2023-08-31T08:37:45;98731.13;;;19.65;100.00
73594;BME280;64760;53.404;23.498;2023-08-31T08:40:11;98735.19;;;19.73;100.00
73594;BME280;64760;53.404;23.498;2023-08-31T08:42:41;98728.94;;;19.72;100.00
73594;BME280;64760;53.404;23.498;2023-08-31T08:45:14;98737.09;;;19.72;100.00
73594;BME280;64760;53.404;23.498;2023-08-31T08:47:42;98743.09;;;19.64;100.00
73594;BME280;64760;53.404;23.498;2023-08-31T08:50:13;98746.06;;;19.73;100.00
73594;BME280;64760;53.404;23.498;2023-08-31T08:52:40;98747.94;;;19.77;100.00
73594;BME280;64760;53.404;23.498;2023-08-31T08:55:09;98750.75;;;19.57;100.00
73594;BME280;64760;53.404;23.498;2023-08-31T08:57:35;98747.38;;;19.75;100.00
73594;BME280;64760;53.404;23.498;2023-08-31T09:00:02;98748.41;;;19.94;100.00
73594;BME280;64760;53.404;23.498;2023-08-31T09:02:29;98748.97;;;19.86;100.00
73594;BME280;64760;53.404;23.498;2023-08-31T09:04:55;98749.53;;;19.83;100.00
73594;BME280;64760;53.404;23.498;2023-08-31T09:07:24;98752.91;;;20.09;100.00
73594;BME280;64760;53.404;23.498;2023-08-31T09:09:52;98754.25;;;20.50;99.03
73594;BME280;64760;53.404;23.498;2023-08-31T09:12:22;98761.75;;;20.97;96.87
73594;BME280;64760;53.404;23.498;2023-08-31T09:15:02;98762.88;;;21.44;93.04
73594;BME280;64760;53.404;23.498;2023-08-31T09:17:41;98762.28;;;21.71;88.26
73594;BME280;64760;53.404;23.498;2023-08-31T09:20:10;98766.63;;;21.72;87.86
73594;BME280;64760;53.404;23.498;2023-08-31T09:22:36;98763.16;;;21.66;87.99
73594;BME280;64760;53.404;23.498;2023-08-31T09:25:03;98769.38;;;21.48;89.84
73594;BME280;64760;53.404;23.498;2023-08-31T09:27:30;98769.38;;;21.24;89.77
73594;BME280;64760;53.404;23.498;2023-08-31T09:30:00;98769.19;;;20.58;88.03
73594;BME280;64760;53.404;23.498;2023-08-31T09:32:26;98771.38;;;20.56;89.74
73594;BME280;64760;53.404;23.498;2023-08-31T09:34:52;98774.97;;;20.46;90.45
73594;BME280;64760;53.404;23.498;2023-08-31T09:37:19;98779.06;;;20.49;90.17
73594;BME280;64760;53.404;23.498;2023-08-31T09:39:45;98775.03;;;20.41;90.12
73594;BME280;64760;53.404;23.498;2023-08-31T09:42:12;98782.03;;;20.52;89.75
73594;BME280;64760;53.404;23.498;2023-08-31T09:44:43;98775.63;;;20.67;90.32
73594;BME280;64760;53.404;23.498;2023-08-31T09:47:09;98778.50;;;20.52;89.95
73594;BME280;64760;53.404;23.498;2023-08-31T09:49:37;98779.88;;;20.78;88.20
73594;BME280;64760;53.404;23.498;2023-08-31T09:52:05;98786.50;;;20.72;89.35
73594;BME280;64760;53.404;23.498;2023-08-31T09:54:34;98782.44;;;20.98;87.65
73594;BME280;64760;53.404;23.498;2023-08-31T09:57:02;98782.63;;;21.07;85.62
73594;BME280;64760;53.404;23.498;2023-08-31T09:59:29;98786.78;;;20.99;85.76
73594;BME280;64760;53.404;23.498;2023-08-31T10:01:55;98794.88;;;21.09;85.46
73594;BME280;64760;53.404;23.498;2023-08-31T10:04:23;98794.38;;;21.02;86.65
73594;BME280;64760;53.404;23.498;2023-08-31T10:06:50;98794.47;;;20.92;88.43
73594;BME280;64760;53.404;23.498;2023-08-31T10:09:17;98800.06;;;20.77;90.43
73594;BME280;64760;53.404;23.498;2023-08-31T10:11:44;98800.75;;;20.59;91.92
73594;BME280;64760;53.404;23.498;2023-08-31T10:14:13;98799.34;;;20.95;90.59
73594;BME280;64760;53.404;23.498;2023-08-31T10:16:40;98802.63;;;20.97;91.99
73594;BME280;64760;53.404;23.498;2023-08-31T10:19:07;98799.41;;;21.19;90.36
73594;BME280;64760;53.404;23.498;2023-08-31T10:21:33;98797.78;;;21.18;91.18
73594;BME280;64760;53.404;23.498;2023-08-31T10:24:00;98799.78;;;21.36;91.18
73594;BME280;64760;53.404;23.498;2023-08-31T10:26:28;98799.66;;;21.23;90.46
73594;BME280;64760;53.404;23.498;2023-08-31T10:28:57;98809.84;;;21.12;91.48
73594;BME280;64760;53.404;23.498;2023-08-31T10:31:24;98804.59;;;21.21;91.86
73594;BME280;64760;53.404;23.498;2023-08-31T10:33:55;98803.16;;;20.94;92.20
73594;BME280;64760;53.404;23.498;2023-08-31T10:36:21;98801.94;;;20.82;94.42
73594;BME280;64760;53.404;23.498;2023-08-31T10:41:23;98803.44;;;20.25;97.73
73594;BME280;64760;53.404;23.498;2023-08-31T10:43:55;98806.53;;;20.03;98.99
73594;BME280;64760;53.404;23.498;2023-08-31T10:46:44;98806.28;;;20.05;100.00
73594;BME280;64760;53.404;23.498;2023-08-31T10:49:14;98808.06;;;20.20;99.53
73594;BME280;64760;53.404;23.498;2023-08-31T10:51:43;98807.50;;;20.33;100.00
73594;BME280;64760;53.404;23.498;2023-08-31T10:54:20;98809.38;;;20.27;98.07
73594;BME280;64760;53.404;23.498;2023-08-31T11:06:10;98809.53;;;20.85;96.89
73594;BME280;64760;53.404;23.498;2023-08-31T11:08:37;98809.75;;;20.93;93.93
73594;BME280;64760;53.404;23.498;2023-08-31T11:11:03;98810.88;;;20.87;92.67
73594;BME280;64760;53.404;23.498;2023-08-31T11:13:30;98809.59;;;20.46;95.30
73594;BME280;64760;53.404;23.498;2023-08-31T11:15:56;98812.13;;;20.32;96.60
73594;BME280;64760;53.404;23.498;2023-08-31T11:18:23;98823.06;;;20.17;96.82
73594;BME280;64760;53.404;23.498;2023-08-31T11:20:49;98817.16;;;20.05;98.59
73594;BME280;64760;53.404;23.498;2023-08-31T11:23:16;98828.81;;;20.10;98.95
73594;BME280;64760;53.404;23.498;2023-08-31T11:25:43;98817.41;;;20.08;99.08
73594;BME280;64760;53.404;23.498;2023-08-31T11:28:10;98826.03;;;20.65;96.48
73594;BME280;64760;53.404;23.498;2023-08-31T11:30:36;98827.03;;;21.13;91.77
73594;BME280;64760;53.404;23.498;2023-08-31T11:33:07;98828.31;;;21.20;89.09
73594;BME280;64760;53.404;23.498;2023-08-31T11:35:39;98823.22;;;21.14;88.79
73594;BME280;64760;53.404;23.498;2023-08-31T11:38:09;98831.63;;;20.78;91.17
73594;BME280;64760;53.404;23.498;2023-08-31T11:40:36;98835.34;;;20.92;91.56
73594;BME280;64760;53.404;23.498;2023-08-31T11:43:07;98837.31;;;21.21;90.60
73594;BME280;64760;53.404;23.498;2023-08-31T11:45:34;98834.59;;;21.68;88.89
73594;BME280;64760;53.404;23.498;2023-08-31T11:48:03;98827.03;;;22.08;83.41
73594;BME280;64760;53.404;23.498;2023-08-31T11:50:29;98827.63;;;22.79;80.08
73594;BME280;64760;53.404;23.498;2023-08-31T11:52:56;98821.00;;;23.31;72.50
73594;BME280;64760;53.404;23.498;2023-08-31T11:55:23;98824.81;;;23.17;71.20
73594;BME280;64760;53.404;23.498;2023-08-31T11:57:54;98837.66;;;22.65;74.27
73594;BME280;64760;53.404;23.498;2023-08-31T12:00:22;98845.50;;;22.16;78.58
73594;BME280;64760;53.404;23.498;2023-08-31T12:03:01;98839.03;;;21.64;80.77
73594;BME280;64760;53.404;23.498;2023-08-31T12:05:29;98841.81;;;21.01;85.71
73594;BME280;64760;53.404;23.498;2023-08-31T12:07:58;98844.00;;;20.99;86.04
73594;BME280;64760;53.404;23.498;2023-08-31T12:10:25;98843.94;;;21.09;85.00
73594;BME280;64760;53.404;23.498;2023-08-31T12:12:52;98846.34;;;21.11;85.06
73594;BME280;64760;53.404;23.498;2023-08-31T12:15:19;98847.81;;;21.32;84.39
73594;BME280;64760;53.404;23.498;2023-08-31T12:17:48;98853.63;;;21.26;83.90
73594;BME280;64760;53.404;23.498;2023-08-31T12:20:25;98847.03;;;21.27;83.16
73594;BME280;64760;53.404;23.498;2023-08-31T12:22:52;98852.06;;;21.15;83.98
73594;BME280;64760;53.404;23.498;2023-08-31T12:25:22;98856.19;;;21.12;84.94
73594;BME280;64760;53.404;23.498;2023-08-31T12:27:49;98851.50;;;20.84;85.99
73594;BME280;64760;53.404;23.498;2023-08-31T12:30:16;98858.00;;;20.54;86.73
73594;BME280;64760;53.404;23.498;2023-08-31T12:32:42;98860.78;;;20.44;87.60
73594;BME280;64760;53.404;23.498;2023-08-31T12:35:12;98858.88;;;20.44;86.92
73594;BME280;64760;53.404;23.498;2023-08-31T12:37:40;98868.00;;;20.63;84.75
73594;BME280;64760;53.404;23.498;2023-08-31T12:40:07;98863.31;;;20.30;86.61
73594;BME280;64760;53.404;23.498;2023-08-31T12:43:18;98872.81;;;20.33;87.56
73594;BME280;64760;53.404;23.498;2023-08-31T12:45:45;98874.69;;;20.37;86.41
73594;BME280;64760;53.404;23.498;2023-08-31T12:48:12;98874.22;;;20.30;87.27
73594;BME280;64760;53.404;23.498;2023-08-31T12:50:38;98875.28;;;20.24;87.95
73594;BME280;64760;53.404;23.498;2023-08-31T12:53:04;98886.50;;;20.12;89.24
73594;BME280;64760;53.404;23.498;2023-08-31T12:55:32;98881.38;;;20.06;89.84
73594;BME280;64760;53.404;23.498;2023-08-31T12:57:59;98894.66;;;20.12;90.08
73594;BME280;64760;53.404;23.498;2023-08-31T13:00:26;98891.66;;;20.14;90.56
73594;BME280;64760;53.404;23.498;2023-08-31T13:02:53;98888.63;;;20.26;89.78
73594;BME280;64760;53.404;23.498;2023-08-31T13:05:21;98889.22;;;20.07;90.25
73594;BME280;64760;53.404;23.498;2023-08-31T13:07:47;98897.88;;;20.30;89.15
73594;BME280;64760;53.404;23.498;2023-08-31T13:10:14;98894.16;;;20.05;91.01
73594;BME280;64760;53.404;23.498;2023-08-31T13:12:43;98893.56;;;20.13;88.80
73594;BME280;64760;53.404;23.498;2023-08-31T13:15:16;98889.56;;;19.96;91.63
73594;BME280;64760;53.404;23.498;2023-08-31T13:17:45;98909.09;;;20.03;94.06
73594;BME280;64760;53.404;23.498;2023-08-31T13:20:12;98904.53;;;19.93;97.15
73594;BME280;64760;53.404;23.498;2023-08-31T13:22:38;98908.13;;;19.68;98.82
73594;BME280;64760;53.404;23.498;2023-08-31T13:25:05;98910.34;;;19.51;100.00
73594;BME280;64760;53.404;23.498;2023-08-31T13:27:32;98907.59;;;19.72;99.83
73594;BME280;64760;53.404;23.498;2023-08-31T13:30:01;98907.84;;;19.85;99.22
73594;BME280;64760;53.404;23.498;2023-08-31T13:36:22;98917.91;;;20.54;91.02
73594;BME280;64760;53.404;23.498;2023-08-31T13:38:49;98915.31;;;20.78;88.09
73594;BME280;64760;53.404;23.498;2023-08-31T13:41:15;98914.47;;;20.77;86.13
73594;BME280;64760;53.404;23.498;2023-08-31T13:43:42;98909.16;;;20.96;83.99
73594;BME280;64760;53.404;23.498;2023-08-31T13:46:11;98910.94;;;21.10;83.23
73594;BME280;64760;53.404;23.498;2023-08-31T13:48:39;98910.56;;;21.56;80.86
73594;BME280;64760;53.404;23.498;2023-08-31T13:51:14;98902.38;;;22.09;77.09
73594;BME280;64760;53.404;23.498;2023-08-31T13:53:41;98908.34;;;22.11;74.21
73594;BME280;64760;53.404;23.498;2023-08-31T13:56:07;98909.94;;;21.93;73.90
73594;BME280;64760;53.404;23.498;2023-08-31T13:58:40;98908.50;;;22.19;72.93
73594;BME280;64760;53.404;23.498;2023-08-31T14:01:19;98900.72;;;22.50;71.86
73594;BME280;64760;53.404;23.498;2023-08-31T14:03:55;98905.69;;;23.04;68.37
73594;BME280;64760;53.404;23.498;2023-08-31T14:06:39;98912.53;;;23.02;68.73
73594;BME280;64760;53.404;23.498;2023-08-31T14:09:12;98901.72;;;23.29;68.13
73594;BME280;64760;53.404;23.498;2023-08-31T14:14:37;98914.00;;;22.38;70.12
73594;BME280;64760;53.404;23.498;2023-08-31T14:17:11;98913.31;;;21.80;72.60
73594;BME280;64760;53.404;23.498;2023-08-31T14:19:37;98923.22;;;22.23;70.88
73594;BME280;64760;53.404;23.498;2023-08-31T14:22:23;98910.91;;;21.49;73.53
73594;BME280;64760;53.404;23.498;2023-08-31T14:25:12;98916.72;;;21.67;73.49
73594;BME280;64760;53.404;23.498;2023-08-31T14:27:59;98917.66;;;21.57;72.84
73594;BME280;64760;53.404;23.498;2023-08-31T14:30:48;98908.97;;;21.50;73.27
73594;BME280;64760;53.404;23.498;2023-08-31T14:33:15;98919.53;;;21.85;72.52
73594;BME280;64760;53.404;23.498;2023-08-31T14:35:41;98925.44;;;21.97;69.83
73594;BME280;64760;53.404;23.498;2023-08-31T14:38:20;98925.94;;;22.23;68.36
73594;BME280;64760;53.404;23.498;2023-08-31T14:40:48;98927.34;;;22.21;66.27
73594;BME280;64760;53.404;23.498;2023-08-31T14:43:14;98924.47;;;22.92;63.50
73594;BME280;64760;53.404;23.498;2023-08-31T14:45:41;98922.81;;;23.61;58.37
73594;BME280;64760;53.404;23.498;2023-08-31T14:48:09;98924.94;;;24.05;55.68
73594;BME280;64760;53.404;23.498;2023-08-31T14:50:35;98925.63;;;23.37;59.16
73594;BME280;64760;53.404;23.498;2023-08-31T14:53:01;98928.97;;;23.66;57.95
73594;BME280;64760;53.404;23.498;2023-08-31T14:55:31;98921.94;;;24.83;52.07
73594;BME280;64760;53.404;23.498;2023-08-31T14:58:04;98929.59;;;25.31;50.25
73594;BME280;64760;53.404;23.498;2023-08-31T15:00:32;98930.00;;;25.46;49.73
73594;BME280;64760;53.404;23.498;2023-08-31T15:03:01;98933.16;;;24.46;50.91
73594;BME280;64760;53.404;23.498;2023-08-31T15:05:30;98935.78;;;23.82;53.60
73594;BME280;64760;53.404;23.498;2023-08-31T15:07:59;98931.16;;;24.51;50.83
73594;BME280;64760;53.404;23.498;2023-08-31T15:10:29;98926.13;;;25.25;49.47
73594;BME280;64760;53.404;23.498;2023-08-31T15:12:58;98921.97;;;25.81;47.08
73594;BME280;64760;53.404;23.498;2023-08-31T15:15:31;98926.63;;;25.72;46.74
73594;BME280;64760;53.404;23.498;2023-08-31T15:17:59;98924.69;;;25.50;46.73
73594;BME280;64760;53.404;23.498;2023-08-31T15:20:26;98920.63;;;25.69;45.76
73594;BME280;64760;53.404;23.498;2023-08-31T15:22:55;98920.00;;;26.12;44.85
73594;BME280;64760;53.404;23.498;2023-08-31T15:25:22;98923.25;;;26.71;43.00
73594;BME280;64760;53.404;23.498;2023-08-31T15:27:48;98916.44;;;26.77;42.18
73594;BME280;64760;53.404;23.498;2023-08-31T15:30:18;98920.44;;;25.97;43.64
73594;BME280;64760;53.404;23.498;2023-08-31T15:32:44;98919.22;;;25.81;43.52
73594;BME280;64760;53.404;23.498;2023-08-31T15:35:12;98926.66;;;25.27;44.43
73594;BME280;64760;53.404;23.498;2023-08-31T15:37:41;98916.09;;;25.43;43.94
73594;BME280;64760;53.404;23.498;2023-08-31T15:40:13;98925.09;;;25.35;43.01
73594;BME280;64760;53.404;23.498;2023-08-31T15:42:45;98935.75;;;25.58;42.87
73594;BME280;64760;53.404;23.498;2023-08-31T15:45:15;98933.44;;;25.30;44.10
73594;BME280;64760;53.404;23.498;2023-08-31T15:47:41;98934.00;;;25.18;44.51
73594;BME280;64760;53.404;23.498;2023-08-31T15:50:08;98931.44;;;25.44;44.12
73594;BME280;64760;53.404;23.498;2023-08-31T15:52:34;98929.34;;;24.83;45.39
73594;BME280;64760;53.404;23.498;2023-08-31T15:55:02;98938.13;;;25.29;45.59
73594;BME280;64760;53.404;23.498;2023-08-31T15:57:31;98935.50;;;25.46;44.77
73594;BME280;64760;53.404;23.498;2023-08-31T15:59:58;98942.53;;;25.92;44.01
73594;BME280;64760;53.404;23.498;2023-08-31T16:06:27;98946.16;;;25.48;44.53
73594;BME280;64760;53.404;23.498;2023-08-31T16:08:53;98946.69;;;25.28;45.66
73594;BME280;64760;53.404;23.498;2023-08-31T16:11:20;98939.34;;;25.01;46.45
73594;BME280;64760;53.404;23.498;2023-08-31T16:13:52;98943.59;;;24.71;47.36
73594;BME280;64760;53.404;23.498;2023-08-31T16:16:22;98935.94;;;24.32;48.41
73594;BME280;64760;53.404;23.498;2023-08-31T16:18:55;98952.25;;;23.96;49.65
73594;BME280;64760;53.404;23.498;2023-08-31T16:21:22;98954.88;;;23.88;50.06
73594;BME280;64760;53.404;23.498;2023-08-31T16:23:52;98958.94;;;23.44;51.69
73594;BME280;64760;53.404;23.498;2023-08-31T16:26:21;98955.09;;;22.70;54.45
73594;BME280;64760;53.404;23.498;2023-08-31T16:28:49;98963.94;;;22.20;56.16
73594;BME280;64760;53.404;23.498;2023-08-31T16:31:25;98967.84;;;21.85;58.42
73594;BME280;64760;53.404;23.498;2023-08-31T16:33:55;98978.91;;;21.41;60.41
73594;BME280;64760;53.404;23.498;2023-08-31T16:36:21;98978.56;;;21.08;62.97
73594;BME280;64760;53.404;23.498;2023-08-31T16:38:53;98975.50;;;20.76;64.97
73594;BME280;64760;53.404;23.498;2023-08-31T16:41:20;98982.69;;;20.57;66.76
73594;BME280;64760;53.404;23.498;2023-08-31T16:43:50;98981.63;;;20.48;66.98
73594;BME280;64760;53.404;23.498;2023-08-31T16:46:19;98988.22;;;20.37;68.04
73594;BME280;64760;53.404;23.498;2023-08-31T16:48:50;98986.38;;;20.12;70.11
73594;BME280;64760;53.404;23.498;2023-08-31T16:51:24;98982.34;;;19.94;71.07
73594;BME280;64760;53.404;23.498;2023-08-31T16:54:03;98983.44;;;19.83;71.93
73594;BME280;64760;53.404;23.498;2023-08-31T16:56:30;98992.16;;;19.75;73.09
73594;BME280;64760;53.404;23.498;2023-08-31T16:58:59;98988.09;;;19.67;73.82
73594;BME280;64760;53.404;23.498;2023-08-31T17:01:25;98990.00;;;19.47;75.52
73594;BME280;64760;53.404;23.498;2023-08-31T17:03:54;98997.06;;;19.38;76.03
73594;BME280;64760;53.404;23.498;2023-08-31T17:06:21;98999.78;;;19.22;77.22
73594;BME280;64760;53.404;23.498;2023-08-31T17:08:47;98991.88;;;19.16;77.61
73594;BME280;64760;53.404;23.498;2023-08-31T17:11:15;98994.03;;;19.04;79.27
73594;BME280;64760;53.404;23.498;2023-08-31T17:13:45;99001.38;;;18.98;80.47
73594;BME280;64760;53.404;23.498;2023-08-31T17:16:11;98995.88;;;18.83;81.80
73594;BME280;64760;53.404;23.498;2023-08-31T17:18:41;98993.91;;;18.63;83.21
73594;BME280;64760;53.404;23.498;2023-08-31T17:21:08;98996.81;;;18.42;85.59
73594;BME280;64760;53.404;23.498;2023-08-31T17:23:35;98994.84;;;18.32;85.91
73594;BME280;64760;53.404;23.498;2023-08-31T17:26:03;98997.25;;;18.23;86.68
73594;BME280;64760;53.404;23.498;2023-08-31T17:28:33;99004.88;;;18.21;86.91
73594;BME280;64760;53.404;23.498;2023-08-31T17:30:59;99005.63;;;18.12;87.82
73594;BME280;64760;53.404;23.498;2023-08-31T17:33:29;99007.47;;;18.01;89.22
73594;BME280;64760;53.404;23.498;2023-08-31T17:35:57;99010.13;;;17.96;90.49
73594;BME280;64760;53.404;23.498;2023-08-31T17:38:23;99008.69;;;17.83;91.21
73594;BME280;64760;53.404;23.498;2023-08-31T17:40:55;99020.88;;;17.81;91.27
73594;BME280;64760;53.404;23.498;2023-08-31T17:43:23;99024.66;;;17.75;92.60
73594;BME280;64760;53.404;23.498;2023-08-31T17:45:49;99026.75;;;17.68;93.06
73594;BME280;64760;53.404;23.498;2023-08-31T17:48:16;99023.50;;;17.66;92.95
73594;BME280;64760;53.404;23.498;2023-08-31T17:50:45;99029.97;;;17.65;92.48
73594;BME280;64760;53.404;23.498;2023-08-31T17:53:12;99039.09;;;17.54;93.73
73594;BME280;64760;53.404;23.498;2023-08-31T17:55:51;99032.31;;;17.56;93.78
73594;BME280;64760;53.404;23.498;2023-08-31T17:58:18;99031.47;;;17.51;94.41
73594;BME280;64760;53.404;23.498;2023-08-31T18:00:44;99046.34;;;17.48;95.41
73594;BME280;64760;53.404;23.498;2023-08-31T18:03:12;99050.41;;;17.46;95.55
73594;BME280;64760;53.404;23.498;2023-08-31T18:05:48;99053.97;;;17.51;95.10
73594;BME280;64760;53.404;23.498;2023-08-31T18:08:18;99057.22;;;17.53;95.21
73594;BME280;64760;53.404;23.498;2023-08-31T18:10:48;99059.13;;;17.53;95.39
73594;BME280;64760;53.404;23.498;2023-08-31T18:13:16;99058.38;;;17.57;94.75
73594;BME280;64760;53.404;23.498;2023-08-31T18:15:46;99058.88;;;17.54;95.30
73594;BME280;64760;53.404;23.498;2023-08-31T18:18:16;99066.72;;;17.51;95.54
73594;BME280;64760;53.404;23.498;2023-08-31T18:20:43;99071.25;;;17.45;96.08
73594;BME280;64760;53.404;23.498;2023-08-31T18:23:10;99077.78;;;17.49;96.32
73594;BME280;64760;53.404;23.498;2023-08-31T18:25:38;99089.50;;;17.55;93.93
73594;BME280;64760;53.404;23.498;2023-08-31T18:28:20;99099.44;;;17.71;89.65
73594;BME280;64760;53.404;23.498;2023-08-31T18:30:59;99093.72;;;18.04;86.16
73594;BME280;64760;53.404;23.498;2023-08-31T18:33:29;99101.59;;;18.06;86.00
73594;BME280;64760;53.404;23.498;2023-08-31T18:35:57;99106.41;;;17.94;86.26
73594;BME280;64760;53.404;23.498;2023-08-31T18:38:27;99102.31;;;17.91;85.87
73594;BME280;64760;53.404;23.498;2023-08-31T18:40:57;99107.66;;;17.81;86.54
73594;BME280;64760;53.404;23.498;2023-08-31T18:43:25;99108.66;;;17.70;88.55
73594;BME280;64760;53.404;23.498;2023-08-31T18:45:54;99104.59;;;17.72;88.91
73594;BME280;64760;53.404;23.498;2023-08-31T18:48:23;99096.94;;;17.64;90.08
73594;BME280;64760;53.404;23.498;2023-08-31T18:51:01;99103.56;;;17.52;92.60
73594;BME280;64760;53.404;23.498;2023-08-31T18:53:37;99099.47;;;17.49;93.59
73594;BME280;64760;53.404;23.498;2023-08-31T18:56:06;99094.97;;;17.60;92.96
73594;BME280;64760;53.404;23.498;2023-08-31T18:58:32;99095.13;;;17.48;94.41
73594;BME280;64760;53.404;23.498;2023-08-31T19:00:59;99102.16;;;17.71;92.94
73594;BME280;64760;53.404;23.498;2023-08-31T19:03:31;99100.50;;;17.43;94.55
73594;BME280;64760;53.404;23.498;2023-08-31T19:05:57;99099.72;;;17.48;94.92
73594;BME280;64760;53.404;23.498;2023-08-31T19:08:27;99107.34;;;17.51;94.40
73594;BME280;64760;53.404;23.498;2023-08-31T19:10:56;99098.94;;;17.52;93.88
73594;BME280;64760;53.404;23.498;2023-08-31T19:13:27;99102.78;;;17.56;94.17
73594;BME280;64760;53.404;23.498;2023-08-31T19:15:53;99104.75;;;17.61;93.56
73594;BME280;64760;53.404;23.498;2023-08-31T19:18:24;99109.50;;;17.49;94.44
73594;BME280;64760;53.404;23.498;2023-08-31T19:21:02;99108.81;;;17.31;95.74
73594;BME280;64760;53.404;23.498;2023-08-31T19:23:31;99099.03;;;17.30;96.98
73594;BME280;64760;53.404;23.498;2023-08-31T19:26:02;99094.72;;;17.34;96.25
73594;BME280;64760;53.404;23.498;2023-08-31T19:28:30;99099.78;;;17.26;97.52
73594;BME280;64760;53.404;23.498;2023-08-31T19:31:03;99106.53;;;17.23;97.70
73594;BME280;64760;53.404;23.498;2023-08-31T19:33:30;99111.59;;;17.15;99.05
73594;BME280;64760;53.404;23.498;2023-08-31T19:39:31;99110.91;;;17.03;100.00
73594;BME280;64760;53.404;23.498;2023-08-31T19:42:05;99114.94;;;16.78;100.00
73594;BME280;64760;53.404;23.498;2023-08-31T19:44:32;99111.34;;;16.73;100.00
73594;BME280;64760;53.404;23.498;2023-08-31T19:46:58;99114.50;;;16.65;100.00
73594;BME280;64760;53.404;23.498;2023-08-31T19:49:24;99120.94;;;16.59;100.00
73594;BME280;64760;53.404;23.498;2023-08-31T19:51:51;99116.97;;;16.66;100.00
73594;BME280;64760;53.404;23.498;2023-08-31T19:54:31;99124.25;;;16.66;100.00
73594;BME280;64760;53.404;23.498;2023-08-31T19:56:57;99125.28;;;16.60;100.00
73594;BME280;64760;53.404;23.498;2023-08-31T19:59:24;99126.72;;;16.51;100.00
73594;BME280;64760;53.404;23.498;2023-08-31T20:01:51;99132.56;;;16.42;100.00
73594;BME280;64760;53.404;23.498;2023-08-31T20:04:17;99128.50;;;16.40;100.00
73594;BME280;64760;53.404;23.498;2023-08-31T20:06:45;99134.63;;;16.35;100.00
73594;BME280;64760;53.404;23.498;2023-08-31T20:09:11;99135.78;;;16.39;100.00
73594;BME280;64760;53.404;23.498;2023-08-31T20:11:40;99143.72;;;16.46;100.00
73594;BME280;64760;53.404;23.498;2023-08-31T20:14:07;99148.94;;;16.53;100.00
73594;BME280;64760;53.404;23.498;2023-08-31T20:16:34;99157.81;;;16.48;100.00
73594;BME280;64760;53.404;23.498;2023-08-31T20:19:03;99155.34;;;16.47;100.00
73594;BME280;64760;53.404;23.498;2023-08-31T20:21:29;99161.75;;;16.40;100.00
73594;BME280;64760;53.404;23.498;2023-08-31T20:23:57;99156.66;;;16.61;100.00
73594;BME280;64760;53.404;23.498;2023-08-31T20:26:30;99160.69;;;16.58;100.00
73594;BME280;64760;53.404;23.498;2023-08-31T20:28:57;99171.22;;;16.76;100.00
73594;BME280;64760;53.404;23.498;2023-08-31T20:31:23;99164.22;;;16.59;100.00
73594;BME280;64760;53.404;23.498;2023-08-31T20:33:50;99166.81;;;16.54;100.00
73594;BME280;64760;53.404;23.498;2023-08-31T20:36:19;99160.44;;;16.60;100.00
73594;BME280;64760;53.404;23.498;2023-08-31T20:38:47;99170.44;;;16.59;100.00
73594;BME280;64760;53.404;23.498;2023-08-31T20:41:17;99167.31;;;16.51;100.00
73594;BME280;64760;53.404;23.498;2023-08-31T20:43:43;99162.56;;;16.58;100.00
73594;BME280;64760;53.404;23.498;2023-08-31T20:46:16;99173.56;;;16.51;100.00
73594;BME280;64760;53.404;23.498;2023-08-31T20:48:43;99165.53;;;16.39;100.00
73594;BME280;64760;53.404;23.498;2023-08-31T20:51:09;99175.34;;;16.45;100.00
73594;BME280;64760;53.404;23.498;2023-08-31T20:53:37;99172.22;;;16.54;100.00
73594;BME280;64760;53.404;23.498;2023-08-31T20:56:11;99174.78;;;16.60;100.00
73594;BME280;64760;53.404;23.498;2023-08-31T20:58:38;99177.41;;;16.38;100.00
73594;BME280;64760;53.404;23.498;2023-08-31T21:03:33;99171.91;;;16.50;100.00
73594;BME280;64760;53.404;23.498;2023-08-31T21:06:00;99192.72;;;16.50;100.00
73594;BME280;64760;53.404;23.498;2023-08-31T21:08:27;99195.03;;;16.58;100.00
73594;BME280;64760;53.404;23.498;2023-08-31T21:10:53;99190.13;;;16.38;100.00
73594;BME280;64760;53.404;23.498;2023-08-31T21:13:21;99197.50;;;16.42;100.00